createdAt,value
2023-02-12T00:02:21.807Z,3.32
2023-02-12T00:04:53.178Z,2.80
2023-02-12T00:07:23.639Z,3.26
2023-02-12T00:09:55.772Z,3.55
2023-02-12T00:12:26.241Z,3.20
2023-02-12T00:14:56.456Z,3.17
2023-02-12T00:17:27.614Z,3.16
2023-02-12T00:19:57.802Z,3.53
2023-02-12T00:22:28.379Z,3.15
2023-02-12T00:25:00.308Z,3.42
2023-02-12T00:27:30.611Z,2.96
2023-02-12T00:30:01.326Z,3.42
2023-02-12T00:32:31.691Z,2.85
2023-02-12T00:35:03.146Z,2.89
2023-02-12T00:37:33.896Z,2.87
2023-02-12T00:40:06.779Z,3.05
2023-02-12T00:42:36.766Z,3.50
2023-02-12T00:45:07.624Z,3.51
2023-02-12T00:47:37.990Z,3.19
2023-02-12T00:50:11.802Z,3.07
2023-02-12T00:52:41.969Z,3.30
2023-02-12T00:55:13.793Z,2.81
2023-02-12T00:57:43.860Z,3.45
2023-02-12T01:00:15.455Z,2.93
2023-02-12T01:02:45.851Z,3.41
2023-02-12T01:05:16.282Z,3.12
2023-02-12T01:07:46.515Z,3.60
2023-02-12T01:10:19.208Z,2.88
2023-02-12T01:12:49.608Z,3.59
2023-02-12T01:15:20.909Z,3.66
2023-02-12T01:17:53.441Z,3.01
2023-02-12T01:20:26.559Z,3.72
2023-02-12T01:22:56.710Z,2.96
2023-02-12T01:25:28.970Z,3.62
2023-02-12T01:27:59.419Z,3.09
2023-02-12T01:30:29.945Z,3.26
2023-02-12T01:33:00.885Z,2.90
2023-02-12T01:35:31.085Z,3.38
2023-02-12T01:38:01.772Z,3.47
2023-02-12T01:40:34.640Z,2.69
2023-02-12T01:43:04.653Z,2.62
2023-02-12T01:45:56.729Z,3.18
2023-02-12T01:48:30.372Z,3.14
2023-02-12T01:51:01.423Z,3.19
2023-02-12T01:53:35.924Z,3.13
2023-02-12T01:56:08.115Z,3.00
2023-02-12T01:58:41.402Z,2.61
2023-02-12T02:01:16.478Z,2.74
2023-02-12T02:03:47.534Z,2.85
2023-02-12T02:06:20.662Z,2.48
2023-02-12T02:08:50.776Z,2.52
2023-02-12T02:11:39.194Z,2.67
2023-02-12T02:14:26.794Z,3.00
2023-02-12T02:17:22.738Z,2.32
2023-02-12T02:20:50.142Z,2.96
2023-02-12T02:23:39.938Z,2.54
2023-02-12T02:26:33.227Z,2.93
2023-02-12T02:29:18.716Z,2.31
2023-02-12T02:31:54.381Z,2.40
2023-02-12T02:34:34.276Z,2.14
2023-02-12T02:37:13.462Z,2.74
2023-02-12T02:39:50.170Z,2.80
2023-02-12T02:42:26.056Z,2.41
2023-02-12T02:44:57.928Z,2.97
2023-02-12T02:47:36.196Z,2.98
2023-02-12T02:50:08.209Z,2.46
2023-02-12T02:52:41.746Z,2.77
2023-02-12T02:55:14.485Z,2.95
2023-02-12T02:57:49.536Z,2.50
2023-02-12T03:00:21.461Z,2.22
2023-02-12T03:02:59.196Z,2.50
2023-02-12T03:05:33.452Z,1.94
2023-02-12T03:08:10.939Z,2.34
2023-02-12T03:10:42.747Z,2.73
2023-02-12T03:13:14.823Z,2.46
2023-02-12T03:15:48.800Z,2.49
2023-02-12T03:18:23.050Z,2.23
2023-02-12T03:20:56.438Z,2.93
2023-02-12T03:23:29.963Z,2.68
2023-02-12T03:26:03.674Z,2.43
2023-02-12T03:28:38.072Z,2.24
2023-02-12T03:31:13.749Z,2.57
2023-02-12T03:33:55.642Z,2.55
2023-02-12T03:36:32.161Z,2.45
2023-02-12T03:39:07.565Z,2.33
2023-02-12T03:41:44.515Z,2.25
2023-02-12T03:44:22.028Z,2.33
2023-02-12T03:47:00.420Z,2.05
2023-02-12T03:49:36.421Z,2.20
2023-02-12T03:52:07.797Z,2.49
2023-02-12T03:54:38.783Z,2.20
2023-02-12T03:57:11.408Z,2.71
2023-02-12T03:59:42.933Z,2.18
2023-02-12T04:02:13.298Z,2.26
2023-02-12T04:04:45.760Z,1.70
2023-02-12T04:07:16.871Z,1.67
2023-02-12T04:09:47.079Z,2.22
2023-02-12T04:12:40.285Z,2.00
2023-02-12T04:15:47.502Z,2.06
2023-02-12T04:18:23.030Z,2.13
2023-02-12T04:21:03.242Z,2.50
2023-02-12T04:23:44.506Z,2.56
2023-02-12T04:26:23.193Z,2.15
2023-02-12T04:29:06.960Z,2.32
2023-02-12T04:31:41.580Z,2.13
2023-02-12T04:34:18.281Z,2.28
2023-02-12T04:36:55.017Z,2.10
2023-02-12T04:39:28.004Z,2.31
2023-02-12T04:42:00.571Z,2.37
2023-02-12T04:44:32.992Z,2.07
2023-02-12T04:47:04.020Z,1.84
2023-02-12T04:49:34.659Z,1.88
2023-02-12T04:52:06.614Z,2.35
2023-02-12T04:54:36.904Z,2.36
2023-02-12T04:57:06.668Z,2.25
2023-02-12T04:59:37.448Z,1.86
2023-02-12T05:02:08.771Z,1.89
2023-02-12T05:04:40.601Z,1.74
2023-02-12T05:07:31.249Z,2.37
2023-02-12T05:10:21.823Z,2.38
2023-02-12T05:13:14.286Z,2.26
2023-02-12T05:16:03.781Z,2.16
2023-02-12T05:18:34.546Z,2.04
2023-02-12T05:21:20.849Z,2.80
2023-02-12T05:23:53.802Z,2.54
2023-02-12T05:26:25.800Z,2.18
2023-02-12T05:28:57.472Z,2.43
2023-02-12T05:31:46.546Z,2.17
2023-02-12T05:34:26.114Z,2.48
2023-02-12T05:37:14.564Z,2.57
2023-02-12T05:40:04.962Z,2.35
2023-02-12T05:42:35.222Z,2.56
2023-02-12T05:45:09.697Z,2.88
2023-02-12T05:47:39.582Z,2.93
2023-02-12T05:50:13.541Z,2.33
2023-02-12T05:53:02.453Z,3.06
2023-02-12T05:55:51.916Z,2.60
2023-02-12T05:58:22.620Z,2.82
2023-02-12T06:01:15.783Z,2.27
2023-02-12T06:03:46.983Z,2.77
2023-02-12T06:06:36.749Z,2.46
2023-02-12T06:09:26.385Z,3.06
2023-02-12T06:11:58.913Z,2.94
2023-02-12T06:14:31.991Z,2.73
2023-02-12T06:17:20.870Z,2.76
2023-02-12T06:19:51.210Z,2.95
2023-02-12T06:22:22.062Z,3.21
2023-02-12T06:24:52.474Z,3.43
2023-02-12T06:27:24.471Z,3.09
2023-02-12T06:29:57.270Z,3.42
2023-02-12T06:32:27.771Z,3.37
2023-02-12T06:35:00.608Z,2.88
2023-02-12T06:37:30.652Z,2.80
2023-02-12T06:40:01.364Z,2.84
2023-02-12T06:42:33.265Z,3.32
2023-02-12T06:45:03.923Z,3.69
2023-02-12T06:47:33.938Z,3.00
2023-02-12T06:50:04.372Z,2.95
2023-02-12T06:52:34.722Z,3.03
2023-02-12T06:55:08.620Z,3.46
2023-02-12T06:57:59.171Z,2.94
2023-02-12T07:00:47.081Z,3.00
2023-02-12T07:03:17.686Z,3.01
2023-02-12T07:05:49.912Z,3.40
2023-02-12T07:08:21.530Z,3.66
2023-02-12T07:10:52.000Z,3.89
2023-02-12T07:13:23.930Z,3.70
2023-02-12T07:15:54.850Z,3.84
2023-02-12T07:18:25.669Z,3.72
2023-02-12T07:20:58.822Z,3.72
2023-02-12T07:23:28.808Z,3.86
2023-02-12T07:26:03.702Z,3.91
2023-02-12T07:28:37.904Z,3.81
2023-02-12T07:31:12.508Z,3.77
2023-02-12T07:33:43.968Z,4.01
2023-02-12T07:36:17.256Z,3.84
2023-02-12T07:38:52.112Z,4.14
2023-02-12T07:41:25.973Z,4.06
2023-02-12T07:44:01.279Z,4.15
2023-02-12T07:46:36.890Z,4.18
2023-02-12T07:49:13.273Z,4.44
2023-02-12T07:51:43.777Z,4.10
2023-02-12T07:54:32.806Z,3.57
2023-02-12T07:57:03.391Z,4.05
2023-02-12T07:59:35.961Z,4.07
2023-02-12T08:02:07.237Z,4.10
2023-02-12T08:04:40.476Z,4.11
2023-02-12T08:07:11.405Z,4.43
2023-02-12T08:10:00.173Z,4.57
2023-02-12T08:12:48.724Z,4.69
2023-02-12T08:15:38.571Z,4.49
2023-02-12T08:18:26.960Z,4.58
2023-02-12T08:21:17.906Z,4.82
2023-02-12T08:23:50.612Z,4.90
2023-02-12T08:26:22.796Z,4.89
2023-02-12T08:28:57.382Z,4.59
2023-02-12T08:31:31.669Z,4.49
2023-02-12T08:34:02.320Z,4.69
2023-02-12T08:36:37.934Z,4.63
2023-02-12T08:39:28.298Z,4.63
2023-02-12T08:41:59.838Z,4.38
2023-02-12T08:44:33.689Z,4.17
2023-02-12T08:47:07.148Z,4.28
2023-02-12T08:49:38.068Z,4.34
2023-02-12T08:52:08.978Z,3.87
2023-02-12T08:54:39.146Z,4.26
2023-02-12T08:57:08.736Z,4.62
2023-02-12T08:59:38.399Z,4.54
2023-02-12T09:02:28.988Z,3.94
2023-02-12T09:05:01.311Z,4.58
2023-02-12T09:07:32.007Z,4.88
2023-02-12T09:10:02.701Z,4.67
2023-02-12T09:12:51.389Z,4.91
2023-02-12T09:15:22.447Z,4.94
2023-02-12T09:17:54.885Z,5.03
2023-02-12T09:20:24.896Z,5.34
2023-02-12T09:22:55.194Z,5.36
2023-02-12T09:25:25.112Z,5.36
2023-02-12T09:28:13.795Z,5.50
2023-02-12T09:30:44.543Z,5.47
2023-02-12T09:33:34.793Z,5.42
2023-02-12T09:36:06.398Z,5.46
2023-02-12T09:38:36.249Z,5.52
2023-02-12T09:41:33.919Z,5.66
2023-02-12T09:44:12.298Z,5.66
2023-02-12T09:46:45.813Z,5.96
2023-02-12T09:50:05.650Z,6.08
2023-02-12T09:52:38.480Z,6.12
2023-02-12T09:55:09.837Z,6.23
2023-02-12T09:57:40.518Z,6.35
2023-02-12T10:00:12.887Z,6.56
2023-02-12T10:02:43.085Z,6.67
2023-02-12T10:05:20.175Z,7.03
2023-02-12T10:08:11.397Z,7.14
2023-02-12T10:10:52.342Z,7.59
2023-02-12T10:13:38.464Z,7.84
2023-02-12T10:16:15.093Z,7.79
2023-02-12T10:18:59.778Z,7.86
2023-02-12T10:21:58.960Z,8.30
2023-02-12T10:25:05.572Z,8.58
2023-02-12T10:27:41.483Z,9.05
2023-02-12T10:30:21.387Z,9.00
2023-02-12T10:33:13.354Z,9.29
2023-02-12T10:35:51.755Z,9.46
2023-02-12T10:38:25.815Z,9.30
2023-02-12T10:41:02.354Z,9.49
2023-02-12T10:43:50.291Z,9.29
2023-02-12T10:46:24.147Z,9.23
2023-02-12T10:49:15.146Z,9.67
2023-02-12T10:52:07.402Z,9.92
2023-02-12T10:54:44.808Z,10.41
2023-02-12T10:57:19.079Z,10.48
2023-02-12T10:59:51.073Z,10.48
2023-02-12T11:02:26.806Z,10.00
2023-02-12T11:04:58.786Z,10.59
2023-02-12T11:07:30.433Z,10.47
2023-02-12T11:12:37.908Z,10.36
2023-02-12T11:15:15.635Z,10.91
2023-02-12T11:17:47.701Z,11.24
2023-02-12T11:20:26.923Z,10.91
2023-02-12T11:22:59.646Z,10.45
2023-02-12T11:25:32.793Z,10.08
2023-02-12T11:28:17.324Z,11.13
2023-02-12T11:30:56.037Z,10.75
2023-02-12T11:33:33.240Z,10.79
2023-02-12T11:36:08.123Z,10.46
2023-02-12T11:38:40.966Z,10.43
2023-02-12T11:41:26.846Z,10.54
2023-02-12T11:43:58.188Z,10.58
2023-02-12T11:46:29.277Z,10.54
2023-02-12T11:49:01.029Z,11.00
2023-02-12T11:51:32.523Z,11.38
2023-02-12T11:54:04.854Z,11.63
2023-02-12T11:56:48.168Z,12.26
2023-02-12T11:59:31.573Z,12.77
2023-02-12T12:02:05.593Z,12.51
2023-02-12T12:04:38.019Z,12.69
2023-02-12T12:07:13.345Z,12.42
2023-02-12T12:09:47.660Z,13.00
2023-02-12T12:12:23.439Z,13.32
2023-02-12T12:15:15.038Z,13.11
2023-02-12T12:18:06.825Z,13.76
2023-02-12T12:20:43.603Z,13.08
2023-02-12T12:23:17.980Z,12.84
2023-02-12T12:25:51.240Z,13.13
2023-02-12T12:28:33.254Z,13.38
2023-02-12T12:31:10.127Z,13.78
2023-02-12T12:33:43.476Z,14.30
2023-02-12T12:36:53.204Z,12.98
2023-02-12T12:39:29.764Z,13.15
2023-02-12T12:42:28.516Z,12.80
2023-02-12T12:45:12.778Z,12.67
2023-02-12T12:47:53.541Z,13.14
2023-02-12T12:50:38.006Z,13.37
2023-02-12T12:53:30.888Z,13.75
2023-02-12T12:56:29.353Z,13.39
2023-02-12T12:59:12.381Z,12.96
2023-02-12T13:02:17.118Z,13.06
2023-02-12T13:05:15.446Z,12.89
2023-02-12T13:07:53.545Z,13.57
2023-02-12T13:10:31.110Z,12.95
2023-02-12T13:13:26.721Z,13.16
2023-02-12T13:16:02.484Z,13.75
2023-02-12T13:18:43.308Z,14.02
2023-02-12T13:21:18.031Z,13.51
2023-02-12T13:23:54.378Z,13.45
2023-02-12T13:26:30.980Z,13.38
2023-02-12T13:29:07.851Z,13.28
2023-02-12T13:31:49.898Z,13.78
2023-02-12T13:34:21.479Z,13.44
2023-02-12T13:36:52.149Z,13.90
2023-02-12T13:39:29.764Z,14.72
2023-02-12T13:42:09.111Z,14.99
2023-02-12T13:44:44.992Z,14.76
2023-02-12T13:47:22.984Z,14.86
2023-02-12T13:49:56.569Z,14.20
2023-02-12T13:52:31.404Z,14.25
2023-02-12T13:55:13.669Z,14.56
2023-02-12T13:57:44.888Z,13.70
2023-02-12T14:00:48.778Z,14.16
2023-02-12T14:03:19.189Z,14.43
2023-02-12T14:05:51.554Z,14.38
2023-02-12T14:08:36.599Z,13.98
2023-02-12T14:11:10.478Z,13.55
2023-02-12T14:13:52.504Z,13.82
2023-02-12T14:16:41.765Z,13.03
2023-02-12T14:19:40.544Z,13.39
2023-02-12T14:22:16.081Z,13.16
2023-02-12T14:24:53.446Z,13.22
2023-02-12T14:27:39.279Z,12.82
2023-02-12T14:30:29.070Z,12.96
2023-02-12T14:33:27.485Z,13.11
2023-02-12T14:36:19.104Z,12.94
2023-02-12T14:39:07.146Z,12.63
2023-02-12T14:41:44.849Z,12.43
2023-02-12T14:44:50.334Z,12.60
2023-02-12T14:47:56.259Z,12.73
2023-02-12T14:50:31.553Z,12.44
2023-02-12T14:53:08.989Z,11.90
2023-02-12T14:55:44.210Z,12.09
2023-02-12T14:58:21.302Z,12.34
2023-02-12T15:00:59.617Z,11.78
2023-02-12T15:03:34.197Z,11.99
2023-02-12T15:06:10.096Z,11.71
2023-02-12T15:08:47.228Z,11.65
2023-02-12T15:11:27.784Z,11.46
2023-02-12T15:14:02.416Z,11.27
2023-02-12T15:16:48.056Z,11.23
2023-02-12T15:19:42.506Z,11.37
2023-02-12T15:22:23.465Z,11.20
2023-02-12T15:24:53.979Z,11.04
2023-02-12T15:27:27.784Z,11.02
2023-02-12T15:29:58.692Z,10.79
2023-02-12T15:32:30.991Z,10.65
2023-02-12T15:35:02.090Z,10.63
2023-02-12T15:37:33.673Z,10.54
2023-02-12T15:40:07.402Z,10.49
2023-02-12T15:42:43.015Z,10.44
2023-02-12T15:45:25.634Z,10.44
2023-02-12T15:48:14.829Z,10.37
2023-02-12T15:50:52.265Z,10.22
2023-02-12T15:53:23.602Z,10.05
2023-02-12T15:55:54.888Z,10.02
2023-02-12T15:58:29.634Z,9.85
2023-02-12T16:01:04.207Z,9.81
2023-02-12T16:03:36.434Z,9.64
2023-02-12T16:06:11.826Z,9.48
2023-02-12T16:08:43.693Z,9.41
2023-02-12T16:11:15.865Z,9.03
2023-02-12T16:13:50.591Z,9.05
2023-02-12T16:16:27.221Z,8.91
2023-02-12T16:19:20.508Z,8.68
2023-02-12T16:21:52.866Z,8.55
2023-02-12T16:24:29.617Z,8.38
2023-02-12T16:27:03.867Z,8.23
2023-02-12T16:29:36.107Z,8.35
2023-02-12T16:32:08.017Z,8.25
2023-02-12T16:34:40.002Z,8.20
2023-02-12T16:37:45.687Z,7.87
2023-02-12T16:40:26.762Z,7.75
2023-02-12T16:43:04.629Z,7.87
2023-02-12T16:45:40.451Z,7.84
2023-02-12T16:48:20.117Z,7.88
2023-02-12T16:50:52.993Z,7.83
2023-02-12T16:53:44.054Z,7.76
2023-02-12T16:56:18.839Z,7.75
2023-02-12T16:58:51.131Z,7.65
2023-02-12T17:01:25.463Z,7.63
2023-02-12T17:03:56.533Z,7.47
2023-02-12T17:06:30.108Z,7.27
2023-02-12T17:09:02.889Z,7.28
2023-02-12T17:11:33.289Z,7.23
2023-02-12T17:14:04.331Z,7.00
2023-02-12T17:16:35.072Z,6.87
2023-02-12T17:19:05.928Z,6.88
2023-02-12T17:21:39.953Z,6.92
2023-02-12T17:24:19.164Z,6.88
2023-02-12T17:26:50.843Z,6.59
2023-02-12T17:29:22.816Z,6.36
2023-02-12T17:31:55.777Z,6.43
2023-02-12T17:34:27.505Z,6.40
2023-02-12T17:36:59.703Z,6.42
2023-02-12T17:39:31.442Z,6.28
2023-02-12T17:42:02.748Z,6.15
2023-02-12T17:44:33.062Z,6.22
2023-02-12T17:47:03.611Z,6.13
2023-02-12T17:49:35.959Z,5.90
2023-02-12T17:52:07.462Z,5.87
2023-02-12T17:54:39.795Z,5.86
2023-02-12T17:57:13.834Z,5.86
2023-02-12T17:59:45.369Z,5.96
2023-02-12T18:02:15.960Z,5.88
2023-02-12T18:04:46.503Z,6.00
2023-02-12T18:07:16.748Z,6.08
2023-02-12T18:09:50.026Z,5.88
2023-02-12T18:12:20.536Z,5.65
2023-02-12T18:14:54.126Z,5.68
2023-02-12T18:17:24.526Z,5.81
2023-02-12T18:19:55.757Z,5.81
2023-02-12T18:22:27.248Z,5.52
2023-02-12T18:24:59.833Z,5.42
2023-02-12T18:27:30.627Z,5.15
2023-02-12T18:30:01.671Z,5.40
2023-02-12T18:32:32.164Z,5.30
2023-02-12T18:35:02.527Z,5.03
2023-02-12T18:37:32.527Z,5.02
2023-02-12T18:40:04.540Z,5.13
2023-02-12T18:42:35.308Z,5.32
2023-02-12T18:45:05.577Z,5.28
2023-02-12T18:47:36.118Z,4.98
2023-02-12T18:50:06.710Z,5.04
2023-02-12T18:52:37.711Z,5.27
2023-02-12T18:55:10.469Z,5.12
2023-02-12T18:57:41.177Z,4.99
2023-02-12T19:00:12.611Z,4.82
2023-02-12T19:02:42.466Z,4.94
2023-02-12T19:05:13.694Z,5.30
2023-02-12T19:07:44.065Z,5.34
2023-02-12T19:10:16.339Z,5.33
2023-02-12T19:12:46.969Z,5.02
2023-02-12T19:15:17.510Z,4.87
2023-02-12T19:17:48.198Z,4.94
2023-02-12T19:20:18.657Z,4.58
2023-02-12T19:22:50.120Z,4.52
2023-02-12T19:25:22.315Z,4.46
2023-02-12T19:27:53.532Z,4.33
2023-02-12T19:30:23.457Z,4.06
2023-02-12T19:32:53.445Z,4.58
2023-02-12T19:35:24.484Z,4.34
2023-02-12T19:37:54.986Z,4.72
2023-02-12T19:40:27.032Z,4.74
2023-02-12T19:42:57.582Z,4.29
2023-02-12T19:45:28.089Z,3.97
2023-02-12T19:47:58.264Z,4.20
2023-02-12T19:50:33.707Z,3.99
2023-02-12T19:53:06.540Z,4.38
2023-02-12T19:55:40.157Z,4.19
2023-02-12T19:58:10.085Z,3.84
2023-02-12T20:00:40.413Z,4.08
2023-02-12T20:03:10.818Z,4.12
2023-02-12T20:05:46.372Z,4.02
2023-02-12T20:08:16.226Z,4.00
2023-02-12T20:10:48.539Z,4.01
2023-02-12T20:13:21.780Z,4.17
2023-02-12T20:15:51.678Z,3.94
2023-02-12T20:18:23.631Z,4.04
2023-02-12T20:20:54.919Z,3.56
2023-02-12T20:23:25.711Z,3.81
2023-02-12T20:25:58.078Z,3.76
2023-02-12T20:28:29.369Z,3.67
2023-02-12T20:30:59.894Z,3.65
2023-02-12T20:33:30.719Z,3.81
2023-02-12T20:36:03.482Z,3.96
2023-02-12T20:38:34.736Z,3.43
2023-02-12T20:41:08.997Z,3.54
2023-02-12T20:43:39.494Z,3.68
2023-02-12T20:46:12.317Z,4.11
2023-02-12T20:48:43.159Z,3.49
2023-02-12T20:51:15.336Z,3.46
2023-02-12T20:53:46.354Z,3.31
2023-02-12T20:56:21.496Z,3.08
2023-02-12T20:58:53.201Z,3.44
2023-02-12T21:01:26.524Z,3.30
2023-02-12T21:03:57.773Z,3.06
2023-02-12T21:06:28.090Z,3.35
2023-02-12T21:08:58.595Z,3.45
2023-02-12T21:11:31.883Z,3.20
2023-02-12T21:14:20.475Z,3.22
2023-02-12T21:16:52.456Z,3.16
2023-02-12T21:19:23.733Z,3.44
2023-02-12T21:21:54.714Z,3.12
2023-02-12T21:24:26.689Z,3.24
2023-02-12T21:26:59.408Z,3.65
2023-02-12T21:29:33.556Z,3.42
2023-02-12T21:32:03.887Z,3.52
2023-02-12T21:34:36.145Z,3.17
2023-02-12T21:37:06.538Z,3.33
2023-02-12T21:39:37.655Z,3.26
2023-02-12T21:42:10.869Z,3.03
2023-02-12T21:44:41.789Z,3.05
2023-02-12T21:47:13.341Z,3.09
2023-02-12T21:49:45.981Z,3.13
2023-02-12T21:52:17.085Z,2.86
2023-02-12T21:54:48.061Z,3.08
2023-02-12T21:57:22.555Z,2.68
2023-02-12T21:59:53.097Z,2.65
2023-02-12T22:02:29.511Z,2.54
2023-02-12T22:05:00.614Z,2.99
2023-02-12T22:07:31.083Z,3.22
2023-02-12T22:10:01.635Z,2.97
2023-02-12T22:12:34.957Z,2.75
2023-02-12T22:15:05.144Z,2.49
2023-02-12T22:17:36.037Z,2.88
2023-02-12T22:20:06.830Z,2.73
2023-02-12T22:22:38.482Z,2.74
2023-02-12T22:25:09.432Z,2.99
2023-02-12T22:27:42.853Z,2.98
2023-02-12T22:30:14.385Z,2.78
2023-02-12T22:32:45.145Z,3.18
2023-02-12T22:35:15.666Z,3.24
2023-02-12T22:37:46.139Z,2.51
2023-02-12T22:40:17.142Z,2.85
2023-02-12T22:42:49.332Z,2.82
2023-02-12T22:45:19.846Z,2.48
2023-02-12T22:47:49.840Z,2.87
2023-02-12T22:50:20.120Z,2.77
2023-02-12T22:52:50.639Z,2.88
2023-02-12T22:55:21.058Z,2.56
2023-02-12T22:57:54.044Z,3.08
2023-02-12T23:00:23.973Z,3.11
2023-02-12T23:02:54.837Z,2.59
2023-02-12T23:05:25.233Z,2.57
2023-02-12T23:07:55.036Z,2.69
2023-02-12T23:10:25.108Z,2.82
2023-02-12T23:12:59.035Z,3.19
2023-02-12T23:15:29.199Z,3.17
2023-02-12T23:18:00.103Z,3.01
2023-02-12T23:20:31.055Z,2.89
2023-02-12T23:23:00.982Z,2.44
2023-02-12T23:25:31.018Z,3.04
2023-02-12T23:28:02.577Z,3.37
2023-02-12T23:30:32.964Z,2.62
2023-02-12T23:33:03.961Z,2.67
2023-02-12T23:35:34.729Z,3.13
2023-02-12T23:38:05.799Z,2.25
2023-02-12T23:40:36.659Z,2.57
2023-02-12T23:43:08.061Z,2.65
2023-02-12T23:45:38.929Z,2.77
2023-02-12T23:48:09.213Z,2.67
2023-02-12T23:50:39.583Z,2.40
2023-02-12T23:53:11.589Z,2.28
2023-02-12T23:55:42.767Z,2.52
2023-02-12T23:58:15.365Z,2.84
